createdAt,value
2023-05-16T00:00:48.868Z,96676.56
2023-05-16T00:03:15.465Z,96673.38
2023-05-16T00:05:41.946Z,96669.13
2023-05-16T00:08:08.405Z,96673.63
2023-05-16T00:10:34.966Z,96669.94
2023-05-16T00:13:01.933Z,96674.69
2023-05-16T00:15:30.053Z,96669.91
2023-05-16T00:17:59.358Z,96669.09
2023-05-16T00:20:28.116Z,96672.31
2023-05-16T00:22:55.442Z,96672.81
2023-05-16T00:25:21.942Z,96676.00
2023-05-16T00:27:48.576Z,96680.47
2023-05-16T00:30:15.025Z,96674.38
2023-05-16T00:32:41.498Z,96673.88
2023-05-16T00:35:10.763Z,96670.66
2023-05-16T00:37:38.501Z,96671.94
2023-05-16T00:40:05.549Z,96671.69
2023-05-16T00:42:32.105Z,96675.31
2023-05-16T00:44:58.635Z,96668.47
2023-05-16T00:47:25.452Z,96672.19
2023-05-16T00:49:52.137Z,96671.13
2023-05-16T00:52:18.687Z,96673.25
2023-05-16T00:54:45.156Z,96675.31
2023-05-16T00:57:11.751Z,96675.81
2023-05-16T00:59:38.348Z,96671.31
2023-05-16T01:02:05.190Z,96672.13
2023-05-16T01:04:32.402Z,96675.31
2023-05-16T01:06:58.940Z,96670.81
2023-05-16T01:09:25.609Z,96664.72
2023-05-16T01:11:56.594Z,96663.16
2023-05-16T01:14:42.551Z,96667.41
2023-05-16T01:17:31.904Z,96669.00
2023-05-16T01:20:16.512Z,96670.03
2023-05-16T01:22:49.017Z,96672.66
2023-05-16T01:25:52.100Z,96670.81
2023-05-16T01:28:19.991Z,96669.50
2023-05-16T01:30:46.461Z,96665.31
2023-05-16T01:33:13.018Z,96670.59
2023-05-16T01:36:03.719Z,96667.88
2023-05-16T01:38:41.898Z,96674.72
2023-05-16T01:41:21.439Z,96671.53
2023-05-16T01:43:51.267Z,96666.78
2023-05-16T01:46:26.654Z,96670.47
2023-05-16T01:48:58.648Z,96670.97
2023-05-16T01:51:30.615Z,96668.34
2023-05-16T01:54:01.815Z,96668.34
2023-05-16T01:56:29.800Z,96672.06
2023-05-16T01:58:59.100Z,96664.69
2023-05-16T02:01:25.551Z,96672.56
2023-05-16T02:03:52.433Z,96670.47
2023-05-16T02:06:18.961Z,96673.38
2023-05-16T02:08:45.404Z,96664.97
2023-05-16T02:11:12.055Z,96671.06
2023-05-16T02:13:38.419Z,96675.84
2023-05-16T02:16:04.988Z,96680.59
2023-05-16T02:18:31.991Z,96682.75
2023-05-16T02:20:58.656Z,96680.13
2023-05-16T02:23:25.092Z,96678.03
2023-05-16T02:25:51.465Z,96667.16
2023-05-16T02:28:17.862Z,96670.56
2023-05-16T02:30:44.313Z,96672.91
2023-05-16T02:33:11.425Z,96674.50
2023-05-16T02:35:38.121Z,96674.03
2023-05-16T02:38:04.498Z,96680.09
2023-05-16T02:40:31.060Z,96676.97
2023-05-16T02:42:57.558Z,96681.19
2023-05-16T02:45:24.329Z,96680.06
2023-05-16T02:47:50.832Z,96684.28
2023-05-16T02:50:17.499Z,96688.81
2023-05-16T02:52:43.901Z,96684.34
2023-05-16T02:57:41.945Z,96677.94
2023-05-16T03:00:11.561Z,96681.91
2023-05-16T03:02:38.102Z,96668.44
2023-05-16T03:05:06.268Z,96674.28
2023-05-16T03:07:33.245Z,96667.66
2023-05-16T03:09:59.752Z,96663.72
2023-05-16T03:12:26.186Z,96671.69
2023-05-16T03:14:52.578Z,96664.28
2023-05-16T03:17:19.261Z,96666.38
2023-05-16T03:19:45.857Z,96671.63
2023-05-16T03:22:12.514Z,96668.44
2023-05-16T03:24:38.953Z,96683.22
2023-05-16T03:27:05.702Z,96680.03
2023-05-16T03:29:32.146Z,96687.34
2023-05-16T03:31:58.613Z,96687.25
2023-05-16T03:34:25.103Z,96680.91
2023-05-16T03:36:51.870Z,96674.50
2023-05-16T03:39:18.371Z,96675.81
2023-05-16T03:41:45.099Z,96676.63
2023-05-16T03:44:11.582Z,96676.63
2023-05-16T03:46:38.209Z,96680.59
2023-05-16T03:49:04.629Z,96671.41
2023-05-16T03:51:31.158Z,96672.50
2023-05-16T03:53:58.082Z,96672.00
2023-05-16T03:56:24.481Z,96671.00
2023-05-16T03:58:50.901Z,96673.69
2023-05-16T04:01:17.493Z,96684.00
2023-05-16T04:03:43.920Z,96677.44
2023-05-16T04:06:10.704Z,96690.13
2023-05-16T04:08:39.492Z,96688.28
2023-05-16T04:11:05.943Z,96694.34
2023-05-16T04:13:32.480Z,96701.22
2023-05-16T04:15:58.930Z,96702.81
2023-05-16T04:18:25.831Z,96710.50
2023-05-16T04:20:52.357Z,96704.44
2023-05-16T04:23:18.867Z,96707.09
2023-05-16T04:25:45.413Z,96703.69
2023-05-16T04:28:11.956Z,96709.78
2023-05-16T04:30:38.655Z,96701.88
2023-05-16T04:33:05.228Z,96702.44
2023-05-16T04:35:31.704Z,96700.88
2023-05-16T04:37:58.306Z,96698.28
2023-05-16T04:40:25.415Z,96703.09
2023-05-16T04:42:53.408Z,96694.66
2023-05-16T04:45:20.000Z,96697.03
2023-05-16T04:47:46.557Z,96702.66
2023-05-16T04:50:13.111Z,96698.19
2023-05-16T04:52:39.637Z,96705.38
2023-05-16T04:55:06.662Z,96700.09
2023-05-16T04:57:33.121Z,96695.06
2023-05-16T04:59:59.678Z,96697.44
2023-05-16T05:02:27.315Z,96695.59
2023-05-16T05:04:53.903Z,96700.63
2023-05-16T05:07:20.770Z,96700.63
2023-05-16T05:09:47.475Z,96699.59
2023-05-16T05:12:14.071Z,96710.72
2023-05-16T05:14:40.712Z,96700.16
2023-05-16T05:17:07.201Z,96710.22
2023-05-16T05:19:33.785Z,96708.63
2023-05-16T05:22:00.378Z,96709.41
2023-05-16T05:24:26.854Z,96716.56
2023-05-16T05:26:53.628Z,96719.19
2023-05-16T05:29:20.251Z,96728.72
2023-05-16T05:31:46.698Z,96715.50
2023-05-16T05:34:13.223Z,96726.63
2023-05-16T05:36:40.054Z,96723.97
2023-05-16T05:39:06.877Z,96730.22
2023-05-16T05:41:33.369Z,96719.16
2023-05-16T05:43:59.842Z,96725.28
2023-05-16T05:46:26.477Z,96726.56
2023-05-16T05:48:53.055Z,96726.34
2023-05-16T05:51:19.481Z,96723.69
2023-05-16T05:53:45.964Z,96721.34
2023-05-16T05:56:12.431Z,96724.25
2023-05-16T05:58:39.484Z,96731.41
2023-05-16T06:01:05.938Z,96732.50
2023-05-16T06:03:32.449Z,96730.91
2023-05-16T06:05:59.140Z,96741.22
2023-05-16T06:08:25.819Z,96734.34
2023-05-16T06:10:52.691Z,96739.91
2023-05-16T06:13:19.168Z,96743.09
2023-05-16T06:15:52.948Z,96738.88
2023-05-16T06:18:20.198Z,96738.31
2023-05-16T06:20:46.959Z,96735.19
2023-05-16T06:23:13.787Z,96737.28
2023-05-16T06:25:40.360Z,96738.88
2023-05-16T06:28:06.756Z,96745.28
2023-05-16T06:30:33.140Z,96751.38
2023-05-16T06:32:59.690Z,96752.69
2023-05-16T06:35:26.504Z,96750.59
2023-05-16T06:37:53.209Z,96756.69
2023-05-16T06:40:19.655Z,96762.25
2023-05-16T06:42:46.097Z,96754.84
2023-05-16T06:45:12.554Z,96759.09
2023-05-16T06:47:40.187Z,96752.44
2023-05-16T06:50:07.635Z,96758.00
2023-05-16T06:52:34.277Z,96752.66
2023-05-16T06:55:03.316Z,96758.25
2023-05-16T06:57:30.248Z,96749.50
2023-05-16T06:59:56.883Z,96755.31
2023-05-16T07:02:23.518Z,96757.19
2023-05-16T07:04:50.020Z,96759.03
2023-05-16T07:07:16.587Z,96751.59
2023-05-16T07:09:43.548Z,96764.31
2023-05-16T07:12:10.116Z,96764.59
2023-05-16T07:14:36.620Z,96757.97
2023-05-16T07:17:03.812Z,96762.25
2023-05-16T07:19:30.484Z,96758.00
2023-05-16T07:21:57.063Z,96765.44
2023-05-16T07:24:23.639Z,96767.84
2023-05-16T07:26:50.157Z,96763.34
2023-05-16T07:29:16.804Z,96761.72
2023-05-16T07:31:43.609Z,96762.84
2023-05-16T07:34:10.929Z,96761.25
2023-05-16T07:36:37.581Z,96761.19
2023-05-16T07:39:04.815Z,96761.47
2023-05-16T07:41:31.417Z,96764.38
2023-05-16T07:43:57.863Z,96771.00
2023-05-16T07:46:25.235Z,96768.09
2023-05-16T07:48:51.848Z,96775.50
2023-05-16T07:51:18.319Z,96776.59
2023-05-16T07:53:44.796Z,96786.16
2023-05-16T07:56:11.438Z,96775.81
2023-05-16T07:58:37.972Z,96776.09
2023-05-16T08:01:04.662Z,96773.97
2023-05-16T08:03:31.664Z,96773.97
2023-05-16T08:05:58.297Z,96782.47
2023-05-16T08:08:24.858Z,96776.09
2023-05-16T08:10:51.300Z,96782.19
2023-05-16T08:13:17.950Z,96786.97
2023-05-16T08:15:44.657Z,96785.09
2023-05-16T08:18:15.149Z,96780.56
2023-05-16T08:20:42.224Z,96785.59
2023-05-16T08:23:09.833Z,96797.56
2023-05-16T08:25:36.331Z,96791.50
2023-05-16T08:28:02.934Z,96791.97
2023-05-16T08:30:29.883Z,96797.22
2023-05-16T08:32:56.407Z,96792.91
2023-05-16T08:35:22.940Z,96801.94
2023-05-16T08:37:49.532Z,96800.41
2023-05-16T08:40:16.342Z,96803.03
2023-05-16T08:42:44.698Z,96801.41
2023-05-16T08:45:11.977Z,96804.00
2023-05-16T08:47:41.495Z,96813.56
2023-05-16T08:50:12.333Z,96815.69
2023-05-16T08:52:40.682Z,96811.50
2023-05-16T08:55:25.436Z,96817.91
2023-05-16T08:57:53.260Z,96820.09
2023-05-16T09:00:20.153Z,96826.75
2023-05-16T09:02:46.776Z,96827.03
2023-05-16T09:05:15.779Z,96817.72
2023-05-16T09:07:43.307Z,96821.44
2023-05-16T09:10:11.197Z,96824.91
2023-05-16T09:12:39.934Z,96821.69
2023-05-16T09:15:08.196Z,96827.56
2023-05-16T09:17:40.171Z,96824.31
2023-05-16T09:20:14.499Z,96820.56
2023-05-16T09:22:52.869Z,96825.38
2023-05-16T09:25:29.697Z,96824.78
2023-05-16T09:28:00.051Z,96824.81
2023-05-16T09:30:30.195Z,96825.31
2023-05-16T09:32:56.939Z,96825.88
2023-05-16T09:35:39.778Z,96824.81
2023-05-16T09:38:17.867Z,96833.31
2023-05-16T09:40:46.150Z,96831.16
2023-05-16T09:43:16.648Z,96835.41
2023-05-16T09:45:48.433Z,96834.59
2023-05-16T09:48:17.056Z,96839.09
2023-05-16T09:50:53.389Z,96834.84
2023-05-16T09:53:33.412Z,96831.16
2023-05-16T09:56:04.739Z,96838.84
2023-05-16T09:58:33.316Z,96843.84
2023-05-16T10:00:59.944Z,96838.59
2023-05-16T10:03:27.382Z,96841.28
2023-05-16T10:05:54.305Z,96833.81
2023-05-16T10:08:25.814Z,96838.84
2023-05-16T10:10:54.376Z,96831.94
2023-05-16T10:13:29.137Z,96830.59
2023-05-16T10:15:57.098Z,96834.84
2023-05-16T10:18:30.473Z,96833.31
2023-05-16T10:21:01.526Z,96830.69
2023-05-16T10:23:28.568Z,96822.72
2023-05-16T10:25:57.653Z,96833.41
2023-05-16T10:28:25.577Z,96823.31
2023-05-16T10:30:53.871Z,96838.69
2023-05-16T10:33:20.510Z,96833.91
2023-05-16T10:35:47.067Z,96828.09
2023-05-16T10:38:19.767Z,96832.06
2023-05-16T10:40:47.873Z,96829.16
2023-05-16T10:43:26.984Z,96838.41
2023-05-16T10:46:03.218Z,96837.34
2023-05-16T10:48:35.619Z,96833.13
2023-05-16T10:51:03.619Z,96833.41
2023-05-16T10:53:31.579Z,96828.00
2023-05-16T10:56:01.241Z,96830.13
2023-05-16T10:58:38.445Z,96831.75
2023-05-16T11:01:24.574Z,96829.63
2023-05-16T11:03:57.371Z,96829.63
2023-05-16T11:06:34.164Z,96838.63
2023-05-16T11:09:06.641Z,96845.91
2023-05-16T11:11:49.453Z,96856.50
2023-05-16T11:14:36.008Z,96855.91
2023-05-16T11:17:06.865Z,96853.22
2023-05-16T11:19:39.404Z,96859.63
2023-05-16T11:22:09.589Z,96859.84
2023-05-16T11:24:38.928Z,96862.22
2023-05-16T11:27:06.418Z,96862.16
2023-05-16T11:29:35.277Z,96860.06
2023-05-16T11:32:06.283Z,96861.00
2023-05-16T11:34:37.898Z,96863.38
2023-05-16T11:37:04.716Z,96867.34
2023-05-16T11:39:32.422Z,96860.91
2023-05-16T11:41:59.032Z,96865.06
2023-05-16T11:44:26.178Z,96867.16
2023-05-16T11:46:52.875Z,96862.88
2023-05-16T11:49:19.753Z,96867.06
2023-05-16T11:51:46.814Z,96869.19
2023-05-16T11:54:13.636Z,96875.78
2023-05-16T11:56:43.452Z,96881.38
2023-05-16T11:59:11.460Z,96880.81
2023-05-16T12:01:40.153Z,96873.97
2023-05-16T12:04:14.710Z,96872.34
2023-05-16T12:06:45.885Z,96875.00
2023-05-16T12:09:15.526Z,96875.25
2023-05-16T12:11:44.580Z,96876.00
2023-05-16T12:14:13.334Z,96876.72
2023-05-16T12:16:44.087Z,96875.81
2023-05-16T12:19:11.552Z,96880.63
2023-05-16T12:21:38.931Z,96880.69
2023-05-16T12:24:09.368Z,96879.09
2023-05-16T12:26:35.834Z,96882.97
2023-05-16T12:29:05.564Z,96884.13
2023-05-16T12:31:37.039Z,96884.50
2023-05-16T12:34:03.592Z,96889.63
2023-05-16T12:36:34.956Z,96888.13
2023-05-16T12:39:03.630Z,96888.75
2023-05-16T12:41:31.423Z,96880.78
2023-05-16T12:44:12.079Z,96885.81
2023-05-16T12:46:52.348Z,96890.84
2023-05-16T12:49:25.010Z,96888.63
2023-05-16T12:51:52.965Z,96887.94
2023-05-16T12:54:20.481Z,96892.34
2023-05-16T12:56:47.022Z,96887.19
2023-05-16T12:59:14.354Z,96887.38
2023-05-16T13:01:42.018Z,96884.56
2023-05-16T13:04:09.001Z,96895.59
2023-05-16T13:06:55.681Z,96897.19
2023-05-16T13:09:22.316Z,96887.66
2023-05-16T13:11:49.017Z,96902.06
2023-05-16T13:14:15.775Z,96905.53
2023-05-16T13:16:42.359Z,96905.25
2023-05-16T13:19:09.385Z,96900.13
2023-05-16T13:21:36.001Z,96909.50
2023-05-16T13:24:02.461Z,96912.19
2023-05-16T13:26:28.946Z,96913.28
2023-05-16T13:28:55.732Z,96920.75
2023-05-16T13:31:22.684Z,96926.34
2023-05-16T13:33:49.244Z,96924.88
2023-05-16T13:36:15.834Z,96915.75
2023-05-16T13:38:43.866Z,96919.91
2023-05-16T13:41:10.404Z,96923.50
2023-05-16T13:43:36.878Z,96925.84
2023-05-16T13:46:03.823Z,96923.06
2023-05-16T13:48:30.425Z,96927.06
2023-05-16T13:50:57.134Z,96925.56
2023-05-16T13:53:23.706Z,96933.38
2023-05-16T13:55:50.151Z,96933.22
2023-05-16T13:58:16.683Z,96935.41
2023-05-16T14:00:45.754Z,96934.31
2023-05-16T14:03:13.134Z,96942.47
2023-05-16T14:05:40.032Z,96943.28
2023-05-16T14:08:06.708Z,96942.75
2023-05-16T14:10:33.270Z,96946.97
2023-05-16T14:12:59.759Z,96947.38
2023-05-16T14:15:26.702Z,96944.06
2023-05-16T14:17:53.546Z,96946.38
2023-05-16T14:20:20.136Z,96941.25
2023-05-16T14:22:46.867Z,96951.94
2023-05-16T14:25:13.337Z,96944.78
2023-05-16T14:27:39.817Z,96952.06
2023-05-16T14:30:08.026Z,96951.31
2023-05-16T14:32:34.756Z,96955.84
2023-05-16T14:35:01.523Z,96958.72
2023-05-16T14:37:27.955Z,96960.84
2023-05-16T14:39:55.137Z,96958.19
2023-05-16T14:42:22.484Z,96960.72
2023-05-16T14:44:49.685Z,96964.56
2023-05-16T14:47:16.488Z,96971.50
2023-05-16T14:49:42.967Z,96978.84
2023-05-16T14:52:09.595Z,96974.59
2023-05-16T14:54:36.807Z,96976.59
2023-05-16T14:57:04.076Z,96983.78
2023-05-16T14:59:30.646Z,96982.41
2023-05-16T15:01:57.192Z,96991.94
2023-05-16T15:04:24.135Z,96994.09
2023-05-16T15:06:50.620Z,96993.03
2023-05-16T15:09:21.749Z,96998.03
2023-05-16T15:11:48.257Z,96996.19
2023-05-16T15:14:14.748Z,97002.00
2023-05-16T15:16:41.215Z,96990.91
2023-05-16T15:19:07.739Z,96994.03
2023-05-16T15:21:34.270Z,96999.31
2023-05-16T15:24:01.001Z,96999.03
2023-05-16T15:26:27.664Z,97005.72
2023-05-16T15:28:55.638Z,96999.47
2023-05-16T15:31:22.574Z,96995.25
2023-05-16T15:33:49.178Z,96998.25
2023-05-16T15:36:15.724Z,96995.38
2023-05-16T15:38:45.834Z,96995.38
2023-05-16T15:41:18.657Z,96992.78
2023-05-16T15:43:58.485Z,96993.38
2023-05-16T15:46:24.937Z,96999.81
2023-05-16T15:48:52.040Z,96999.34
2023-05-16T15:51:19.637Z,97000.38
2023-05-16T15:53:47.355Z,96992.38
2023-05-16T15:56:13.811Z,96992.19
2023-05-16T15:58:40.452Z,96994.41
2023-05-16T16:01:07.156Z,96983.47
2023-05-16T16:03:33.829Z,96989.19
2023-05-16T16:06:00.539Z,96989.78
2023-05-16T16:08:27.095Z,96991.66
2023-05-16T16:10:53.551Z,96996.81
2023-05-16T16:13:21.166Z,96990.50
2023-05-16T16:15:47.727Z,96996.91
2023-05-16T16:18:14.471Z,97000.06
2023-05-16T16:20:41.126Z,97001.03
2023-05-16T16:23:08.204Z,97004.78
2023-05-16T16:25:34.877Z,97002.16
2023-05-16T16:28:01.398Z,97012.78
2023-05-16T16:30:27.974Z,97002.16
2023-05-16T16:32:54.542Z,97001.16
2023-05-16T16:35:22.427Z,96998.53
2023-05-16T16:38:04.870Z,97002.22
2023-05-16T16:40:33.040Z,96998.47
2023-05-16T16:42:59.573Z,96999.25
2023-05-16T16:45:27.145Z,97013.75
2023-05-16T16:47:53.725Z,97007.25
2023-05-16T16:50:20.264Z,97012.44
2023-05-16T16:52:46.718Z,97025.88
2023-05-16T16:55:14.856Z,97024.06
2023-05-16T16:57:42.455Z,97024.53
2023-05-16T17:00:11.232Z,97024.72
2023-05-16T17:02:37.930Z,97019.44
2023-05-16T17:05:05.878Z,97027.63
2023-05-16T17:07:33.037Z,97030.22
2023-05-16T17:10:00.941Z,97032.59
2023-05-16T17:12:28.837Z,97023.84
2023-05-16T17:14:57.372Z,97031.53
2023-05-16T17:17:25.434Z,97025.94
2023-05-16T17:19:52.828Z,97037.31
2023-05-16T17:22:19.306Z,97042.81
2023-05-16T17:24:45.813Z,97031.75
2023-05-16T17:27:13.474Z,97042.81
2023-05-16T17:29:39.863Z,97040.09
2023-05-16T17:32:06.561Z,97041.81
2023-05-16T17:34:33.336Z,97049.78
2023-05-16T17:37:00.183Z,97045.00
2023-05-16T17:39:26.641Z,97053.00
2023-05-16T17:41:55.095Z,97048.50
2023-05-16T17:44:21.517Z,97048.78
2023-05-16T17:46:48.027Z,97057.59
2023-05-16T17:49:14.563Z,97059.44
2023-05-16T17:51:52.837Z,97052.56
2023-05-16T17:54:20.578Z,97053.59
2023-05-16T17:56:48.143Z,97055.88
2023-05-16T17:59:14.924Z,97064.28
2023-05-16T18:01:42.244Z,97063.34
2023-05-16T18:04:09.294Z,97066.28
2023-05-16T18:06:37.633Z,97072.00
2023-05-16T18:09:07.312Z,97077.03
2023-05-16T18:11:34.308Z,97075.94
2023-05-16T18:14:02.125Z,97082.22
2023-05-16T18:16:30.626Z,97074.81
2023-05-16T18:18:58.209Z,97082.22
2023-05-16T18:21:24.882Z,97082.34
2023-05-16T18:23:51.822Z,97073.59
2023-05-16T18:26:19.322Z,97082.06
2023-05-16T18:28:45.885Z,97088.59
2023-05-16T18:31:12.506Z,97084.94
2023-05-16T18:33:39.121Z,97089.94
2023-05-16T18:36:05.799Z,97088.38
2023-05-16T18:38:33.453Z,97092.59
2023-05-16T18:41:00.864Z,97094.13
2023-05-16T18:43:27.507Z,97098.78
2023-05-16T18:45:54.008Z,97104.09
2023-05-16T18:48:20.679Z,97102.19
2023-05-16T18:50:47.266Z,97099.78
2023-05-16T18:53:14.055Z,97104.59
2023-05-16T18:55:40.540Z,97102.34
2023-05-16T18:58:07.099Z,97103.31
2023-05-16T19:00:34.362Z,97112.47
2023-05-16T19:03:01.246Z,97110.47
2023-05-16T19:05:28.260Z,97113.44
2023-05-16T19:07:54.962Z,97116.63
2023-05-16T19:10:21.607Z,97115.19
2023-05-16T19:12:49.099Z,97123.50
2023-05-16T19:15:15.772Z,97128.63
2023-05-16T19:17:42.504Z,97121.06
2023-05-16T19:20:11.013Z,97125.88
2023-05-16T19:22:37.785Z,97131.13
2023-05-16T19:25:05.431Z,97138.16
2023-05-16T19:27:31.991Z,97142.38
2023-05-16T19:29:58.655Z,97138.16
2023-05-16T19:32:25.233Z,97152.41
2023-05-16T19:34:52.268Z,97153.78
2023-05-16T19:37:19.102Z,97158.97
2023-05-16T19:39:45.620Z,97157.25
2023-05-16T19:42:12.050Z,97162.00
2023-05-16T19:44:38.503Z,97166.13
2023-05-16T19:47:05.266Z,97165.56
2023-05-16T19:49:31.936Z,97173.81
2023-05-16T19:51:58.418Z,97174.84
2023-05-16T19:54:24.904Z,97173.81
2023-05-16T19:56:51.440Z,97165.38
2023-05-16T19:59:18.135Z,97173.72
2023-05-16T20:01:44.844Z,97175.69
2023-05-16T20:04:11.693Z,97167.22
2023-05-16T20:06:38.497Z,97171.59
2023-05-16T20:09:06.445Z,97185.56
2023-05-16T20:11:33.151Z,97183.16
2023-05-16T20:14:00.259Z,97192.44
2023-05-16T20:16:27.269Z,97184.41
2023-05-16T20:18:53.935Z,97188.53
2023-05-16T20:21:20.827Z,97196.31
2023-05-16T20:23:47.347Z,97196.75
2023-05-16T20:26:16.429Z,97199.41
2023-05-16T20:28:42.853Z,97198.84
2023-05-16T20:31:09.559Z,97201.00
2023-05-16T20:33:36.140Z,97202.03
2023-05-16T20:36:02.730Z,97209.38
2023-05-16T20:38:29.283Z,97209.94
2023-05-16T20:40:56.276Z,97213.63
2023-05-16T20:43:24.115Z,97213.06
2023-05-16T20:45:52.002Z,97219.94
2023-05-16T20:48:18.536Z,97221.53
2023-05-16T20:50:45.042Z,97221.06
2023-05-16T20:53:11.701Z,97224.72
2023-05-16T20:55:38.533Z,97221.06
2023-05-16T20:58:05.037Z,97224.28
2023-05-16T21:00:33.706Z,97227.84
2023-05-16T21:03:00.347Z,97221.31
2023-05-16T21:05:26.962Z,97226.25
2023-05-16T21:07:53.881Z,97229.44
2023-05-16T21:10:20.429Z,97225.66
2023-05-16T21:12:46.952Z,97232.09
2023-05-16T21:15:13.684Z,97232.88
2023-05-16T21:17:41.391Z,97229.00
2023-05-16T21:20:08.586Z,97237.81
2023-05-16T21:22:35.309Z,97234.16
2023-05-16T21:25:01.747Z,97237.34
2023-05-16T21:27:28.185Z,97233.34
2023-05-16T21:29:54.679Z,97245.41
2023-05-16T21:32:21.213Z,97241.59
2023-05-16T21:34:47.633Z,97244.25
2023-05-16T21:37:14.118Z,97244.34
2023-05-16T21:39:40.603Z,97245.25
2023-05-16T21:42:07.151Z,97244.72
2023-05-16T21:44:33.601Z,97253.31
2023-05-16T21:47:00.063Z,97247.69
2023-05-16T21:49:26.583Z,97252.22
2023-05-16T21:51:53.291Z,97249.38
2023-05-16T21:54:19.754Z,97260.59
2023-05-16T21:56:46.172Z,97255.00
2023-05-16T21:59:13.927Z,97258.28
2023-05-16T22:01:40.292Z,97252.34
2023-05-16T22:04:07.083Z,97257.50
2023-05-16T22:06:33.629Z,97253.34
2023-05-16T22:09:01.579Z,97253.69
2023-05-16T22:11:28.542Z,97264.13
2023-05-16T22:13:55.090Z,97262.50
2023-05-16T22:16:21.632Z,97260.47
2023-05-16T22:18:48.185Z,97264.94
2023-05-16T22:21:16.258Z,97273.50
2023-05-16T22:23:42.801Z,97261.38
2023-05-16T22:26:09.396Z,97266.06
2023-05-16T22:28:36.134Z,97266.81
2023-05-16T22:31:02.705Z,97258.38
2023-05-16T22:33:29.405Z,97267.72
2023-05-16T22:35:56.220Z,97263.72
2023-05-16T22:38:22.696Z,97268.66
2023-05-16T22:40:49.282Z,97264.63
2023-05-16T22:43:15.943Z,97262.09
2023-05-16T22:45:42.414Z,97263.91
2023-05-16T22:48:08.996Z,97258.66
2023-05-16T22:50:35.685Z,97265.53
2023-05-16T22:53:02.136Z,97262.75
2023-05-16T22:55:29.592Z,97261.94
2023-05-16T22:57:58.354Z,97262.41
2023-05-16T23:00:24.930Z,97264.47
2023-05-16T23:02:51.522Z,97270.97
2023-05-16T23:05:18.298Z,97273.25
2023-05-16T23:07:44.836Z,97280.88
2023-05-16T23:10:11.378Z,97276.91
2023-05-16T23:12:37.862Z,97281.50
2023-05-16T23:15:09.818Z,97285.13
2023-05-16T23:17:40.179Z,97285.22
2023-05-16T23:20:07.387Z,97285.28
2023-05-16T23:22:33.878Z,97282.31
2023-05-16T23:25:00.726Z,97287.63
2023-05-16T23:27:27.234Z,97288.06
2023-05-16T23:29:54.051Z,97292.16
2023-05-16T23:32:20.862Z,97293.63
2023-05-16T23:34:47.597Z,97297.25
2023-05-16T23:37:14.751Z,97301.19
2023-05-16T23:39:41.539Z,97301.75
2023-05-16T23:42:08.066Z,97300.94
2023-05-16T23:44:34.714Z,97300.59
2023-05-16T23:47:01.194Z,97305.84
2023-05-16T23:49:27.685Z,97308.47
2023-05-16T23:51:57.958Z,97306.25
2023-05-16T23:54:25.845Z,97309.13
2023-05-16T23:56:52.527Z,97309.94
2023-05-16T23:59:19.188Z,97309.94
